createdAt,value
2022-09-13T00:00:33.795Z,85.54
2022-09-13T00:03:20.186Z,83.24
2022-09-13T00:06:13.145Z,79.71
2022-09-13T00:09:01.438Z,78.84
2022-09-13T00:11:47.039Z,81.01
2022-09-13T00:14:33.190Z,88.36
2022-09-13T00:17:19.024Z,85.30
2022-09-13T00:20:05.783Z,80.30
2022-09-13T00:22:52.061Z,80.33
2022-09-13T00:25:38.617Z,80.03
2022-09-13T00:28:24.633Z,87.53
2022-09-13T00:31:11.501Z,85.49
2022-09-13T00:34:00.016Z,82.86
2022-09-13T00:36:46.435Z,80.54
2022-09-13T00:39:33.221Z,80.72
2022-09-13T00:42:28.770Z,81.97
2022-09-13T00:45:18.635Z,81.66
2022-09-13T00:48:06.793Z,82.05
2022-09-13T00:50:55.566Z,81.65
2022-09-13T00:53:44.364Z,82.30
2022-09-13T00:56:36.818Z,80.93
2022-09-13T00:59:26.840Z,82.10
2022-09-13T01:02:13.779Z,82.86
2022-09-13T01:04:59.951Z,83.75
2022-09-13T01:07:46.316Z,85.28
2022-09-13T01:10:36.040Z,85.33
2022-09-13T01:13:24.219Z,84.99
2022-09-13T01:16:10.595Z,81.80
2022-09-13T01:18:56.998Z,81.77
2022-09-13T01:22:25.132Z,80.70
2022-09-13T01:25:17.222Z,81.53
2022-09-13T01:28:31.337Z,80.99
2022-09-13T01:31:54.650Z,81.56
2022-09-13T01:35:19.405Z,80.36
2022-09-13T01:38:11.386Z,80.92
2022-09-13T01:41:13.289Z,79.96
2022-09-13T01:44:35.683Z,79.85
2022-09-13T01:47:49.857Z,80.53
2022-09-13T01:50:46.730Z,82.12
2022-09-13T01:53:53.996Z,82.16
2022-09-13T01:56:45.453Z,81.56
2022-09-13T01:59:47.331Z,80.78
2022-09-13T02:02:42.311Z,80.30
2022-09-13T02:06:08.241Z,80.31
2022-09-13T02:08:57.372Z,80.82
2022-09-13T02:11:46.236Z,81.34
2022-09-13T02:14:36.213Z,80.96
2022-09-13T02:17:25.109Z,80.34
2022-09-13T02:20:24.898Z,83.01
2022-09-13T02:23:17.030Z,80.76
2022-09-13T02:26:05.107Z,80.26
2022-09-13T02:28:53.345Z,81.04
2022-09-13T02:31:58.506Z,80.53
2022-09-13T02:34:58.620Z,83.84
2022-09-13T02:37:48.806Z,85.65
2022-09-13T02:40:40.597Z,89.48
2022-09-13T02:43:31.645Z,87.73
2022-09-13T02:46:38.493Z,82.84
2022-09-13T02:49:39.251Z,81.09
2022-09-13T02:52:37.407Z,81.79
2022-09-13T02:56:02.585Z,80.97
2022-09-13T02:59:17.327Z,81.87
2022-09-13T03:02:25.476Z,81.27
2022-09-13T03:05:11.644Z,80.31
2022-09-13T03:07:58.767Z,81.68
2022-09-13T03:11:05.366Z,80.79
2022-09-13T03:14:28.203Z,80.61
2022-09-13T03:17:25.652Z,79.25
2022-09-13T03:20:40.602Z,81.40
2022-09-13T03:23:41.878Z,83.99
2022-09-13T03:26:44.759Z,99.55
2022-09-13T03:29:52.559Z,95.78
2022-09-13T03:32:58.741Z,100.00
2022-09-13T03:35:52.161Z,95.75
2022-09-13T03:39:14.861Z,92.38
2022-09-13T03:42:05.497Z,86.98
2022-09-13T03:44:53.781Z,86.84
2022-09-13T03:47:42.759Z,87.96
2022-09-13T03:50:29.004Z,92.99
2022-09-13T03:53:20.435Z,90.04
2022-09-13T03:56:17.178Z,100.00
2022-09-13T03:59:03.348Z,100.00
2022-09-13T04:01:49.234Z,100.00
2022-09-13T04:04:35.772Z,100.00
2022-09-13T04:07:23.794Z,100.00
2022-09-13T04:10:13.542Z,100.00
2022-09-13T04:13:00.442Z,97.39
2022-09-13T04:15:46.791Z,96.39
2022-09-13T04:18:33.054Z,96.07
2022-09-13T04:21:19.770Z,92.60
2022-09-13T04:24:05.713Z,90.78
2022-09-13T04:26:53.261Z,90.25
2022-09-13T04:29:39.428Z,90.39
2022-09-13T04:32:25.928Z,89.33
2022-09-13T04:35:11.906Z,91.08
2022-09-13T04:37:58.339Z,91.25
2022-09-13T04:40:44.149Z,92.21
2022-09-13T04:43:30.595Z,96.23
2022-09-13T04:46:17.567Z,95.78
2022-09-13T04:49:04.105Z,96.27
2022-09-13T04:51:50.189Z,98.94
2022-09-13T04:54:36.795Z,96.28
2022-09-13T04:57:22.811Z,100.00
2022-09-13T05:00:09.985Z,100.00
2022-09-13T05:02:56.671Z,100.00
2022-09-13T05:05:43.211Z,100.00
2022-09-13T05:08:29.829Z,100.00
2022-09-13T05:11:16.480Z,100.00
2022-09-13T05:14:02.462Z,100.00
2022-09-13T05:16:48.606Z,100.00
2022-09-13T05:19:35.264Z,100.00
2022-09-13T05:22:21.662Z,96.50
2022-09-13T05:25:08.165Z,96.51
2022-09-13T05:27:54.406Z,96.14
2022-09-13T05:30:42.326Z,95.93
2022-09-13T05:33:31.195Z,96.62
2022-09-13T05:36:17.705Z,100.00
2022-09-13T05:39:34.091Z,100.00
2022-09-13T05:42:11.373Z,99.64
2022-09-13T05:44:57.763Z,97.07
2022-09-13T05:47:44.126Z,95.24
2022-09-13T05:50:56.816Z,97.13
2022-09-13T05:53:40.958Z,95.19
2022-09-13T05:56:30.005Z,100.00
2022-09-13T05:59:16.172Z,100.00
2022-09-13T06:02:02.686Z,100.00
2022-09-13T06:04:50.805Z,96.76
2022-09-13T06:07:39.212Z,97.96
2022-09-13T06:10:25.838Z,98.76
2022-09-13T06:13:11.684Z,99.63
2022-09-13T06:16:00.008Z,93.05
2022-09-13T06:18:45.936Z,97.77
2022-09-13T06:21:32.568Z,93.72
2022-09-13T06:24:18.746Z,90.68
2022-09-13T06:27:05.929Z,89.53
2022-09-13T06:29:51.907Z,92.49
2022-09-13T06:32:38.122Z,94.14
2022-09-13T06:35:24.136Z,88.78
2022-09-13T06:38:10.196Z,86.08
2022-09-13T06:41:10.667Z,86.69
2022-09-13T06:43:59.024Z,86.30
2022-09-13T06:46:45.147Z,83.45
2022-09-13T06:49:31.706Z,82.96
2022-09-13T06:52:18.202Z,80.81
2022-09-13T06:55:04.625Z,80.14
2022-09-13T06:57:50.610Z,80.35
2022-09-13T07:00:37.125Z,80.36
2022-09-13T07:03:23.260Z,76.48
2022-09-13T07:06:24.015Z,78.39
2022-09-13T07:09:16.088Z,77.07
2022-09-13T07:12:02.608Z,73.63
2022-09-13T07:14:48.421Z,70.55
2022-09-13T07:17:34.831Z,68.13
2022-09-13T07:20:20.858Z,65.78
2022-09-13T07:23:07.540Z,66.08
2022-09-13T07:25:55.609Z,65.29
2022-09-13T07:28:43.895Z,65.35
2022-09-13T07:31:37.962Z,65.97
2022-09-13T07:34:25.825Z,63.70
2022-09-13T07:37:13.872Z,63.67
2022-09-13T07:40:00.365Z,63.78
2022-09-13T07:42:46.842Z,62.18
2022-09-13T07:45:33.820Z,61.18
2022-09-13T07:48:19.980Z,61.83
2022-09-13T07:51:13.801Z,60.63
2022-09-13T07:54:01.818Z,60.88
2022-09-13T07:56:50.307Z,59.37
2022-09-13T07:59:38.231Z,56.87
2022-09-13T08:02:24.757Z,60.49
2022-09-13T08:05:11.444Z,57.12
2022-09-13T08:07:57.418Z,57.22
2022-09-13T08:10:48.840Z,61.29
2022-09-13T08:13:35.957Z,62.15
2022-09-13T08:16:23.795Z,58.22
2022-09-13T08:19:13.389Z,60.06
2022-09-13T08:21:59.474Z,57.30
2022-09-13T08:24:45.815Z,57.19
2022-09-13T08:27:32.150Z,55.92
2022-09-13T08:30:18.070Z,56.89
2022-09-13T08:33:04.933Z,56.29
2022-09-13T08:35:52.591Z,54.19
2022-09-13T08:38:39.009Z,56.16
2022-09-13T08:41:32.428Z,53.79
2022-09-13T08:44:26.803Z,51.85
2022-09-13T08:47:19.515Z,52.57
2022-09-13T08:50:19.420Z,54.46
2022-09-13T08:53:28.505Z,55.53
2022-09-13T08:56:36.727Z,55.91
2022-09-13T08:59:35.354Z,53.87
2022-09-13T09:02:48.876Z,52.93
2022-09-13T09:05:47.847Z,52.66
2022-09-13T09:08:58.402Z,49.28
2022-09-13T09:12:07.962Z,51.89
2022-09-13T09:15:00.880Z,50.27
2022-09-13T09:18:03.988Z,47.98
2022-09-13T09:20:50.973Z,50.70
2022-09-13T09:23:40.989Z,52.55
2022-09-13T09:26:31.349Z,50.96
2022-09-13T09:29:24.914Z,50.58
2022-09-13T09:32:30.516Z,50.94
2022-09-13T09:35:27.344Z,48.83
2022-09-13T09:38:36.202Z,46.76
2022-09-13T09:41:26.890Z,48.96
2022-09-13T09:44:23.638Z,45.11
2022-09-13T09:47:20.182Z,45.75
2022-09-13T09:50:19.010Z,44.95
2022-09-13T09:53:15.170Z,45.63
2022-09-13T09:56:24.660Z,42.92
2022-09-13T09:59:28.494Z,44.64
2022-09-13T10:02:18.170Z,42.35
2022-09-13T10:05:06.854Z,43.09
2022-09-13T10:08:05.277Z,39.91
2022-09-13T10:10:53.914Z,37.82
2022-09-13T10:13:57.894Z,38.80
2022-09-13T10:16:44.498Z,37.98
2022-09-13T10:19:32.397Z,38.98
2022-09-13T10:22:18.949Z,38.67
2022-09-13T10:25:31.939Z,39.25
2022-09-13T10:28:18.784Z,40.75
2022-09-13T10:31:14.820Z,37.59
2022-09-13T10:34:06.055Z,38.18
2022-09-13T10:36:54.335Z,40.12
2022-09-13T10:39:54.192Z,41.07
2022-09-13T10:42:40.894Z,40.49
2022-09-13T10:45:29.966Z,39.30
2022-09-13T10:48:16.879Z,33.48
2022-09-13T10:51:07.383Z,35.28
2022-09-13T10:54:12.068Z,34.53
2022-09-13T10:56:57.912Z,33.84
2022-09-13T10:59:52.755Z,33.22
2022-09-13T11:02:41.872Z,33.72
2022-09-13T11:05:34.884Z,36.85
2022-09-13T11:08:27.038Z,37.06
2022-09-13T11:11:19.126Z,36.65
2022-09-13T11:14:27.304Z,37.27
2022-09-13T11:17:23.738Z,37.22
2022-09-13T11:20:18.441Z,38.15
2022-09-13T11:23:10.623Z,35.43
2022-09-13T11:25:59.800Z,37.64
2022-09-13T11:28:54.862Z,34.85
2022-09-13T11:31:44.399Z,34.36
2022-09-13T11:34:42.398Z,34.58
2022-09-13T11:37:44.764Z,35.82
2022-09-13T11:40:58.546Z,37.34
2022-09-13T11:44:03.451Z,35.91
2022-09-13T11:46:55.462Z,38.27
2022-09-13T11:50:00.300Z,39.74
2022-09-13T11:53:01.633Z,42.25
2022-09-13T11:55:49.259Z,38.19
2022-09-13T11:58:44.052Z,38.38
2022-09-13T12:01:40.699Z,37.40
2022-09-13T12:04:33.756Z,35.71
2022-09-13T12:07:31.077Z,36.16
2022-09-13T12:10:30.666Z,36.82
2022-09-13T12:13:22.090Z,36.37
2022-09-13T12:16:11.623Z,36.15
2022-09-13T12:19:00.170Z,34.80
2022-09-13T12:21:46.875Z,37.32
2022-09-13T12:24:38.499Z,36.74
2022-09-13T12:27:39.943Z,37.19
2022-09-13T12:30:36.997Z,36.35
2022-09-13T12:33:23.783Z,34.33
2022-09-13T12:36:45.935Z,36.88
2022-09-13T12:40:11.702Z,39.01
2022-09-13T12:43:00.560Z,39.61
2022-09-13T12:45:50.832Z,39.10
2022-09-13T12:48:55.115Z,38.00
2022-09-13T12:51:43.938Z,35.17
2022-09-13T12:54:32.869Z,40.47
2022-09-13T12:57:25.408Z,40.19
2022-09-13T13:00:13.177Z,42.10
2022-09-13T13:03:14.525Z,39.46
2022-09-13T13:06:19.085Z,38.54
2022-09-13T13:09:29.015Z,37.71
2022-09-13T13:12:36.798Z,40.74
2022-09-13T13:15:25.852Z,39.52
2022-09-13T13:18:28.910Z,41.40
2022-09-13T13:21:36.022Z,40.85
2022-09-13T13:24:21.998Z,40.03
2022-09-13T13:27:34.646Z,36.86
2022-09-13T13:30:42.364Z,37.17
2022-09-13T13:33:29.409Z,37.96
2022-09-13T13:36:27.776Z,38.99
2022-09-13T13:39:23.378Z,37.65
2022-09-13T13:42:13.617Z,35.83
2022-09-13T13:44:59.601Z,37.53
2022-09-13T13:48:07.332Z,38.87
2022-09-13T13:51:15.629Z,38.57
2022-09-13T13:54:05.865Z,38.49
2022-09-13T13:56:52.279Z,39.06
2022-09-13T13:59:39.072Z,36.74
2022-09-13T14:02:39.764Z,36.86
2022-09-13T14:05:47.087Z,39.63
2022-09-13T14:08:42.375Z,38.64
2022-09-13T14:12:07.993Z,39.84
2022-09-13T14:15:35.889Z,38.31
2022-09-13T14:18:55.442Z,38.14
2022-09-13T14:21:41.255Z,37.60
2022-09-13T14:24:28.033Z,37.75
2022-09-13T14:27:22.617Z,34.90
2022-09-13T14:30:20.128Z,36.18
2022-09-13T14:33:06.181Z,34.62
2022-09-13T14:36:01.526Z,36.93
2022-09-13T14:38:55.451Z,37.67
2022-09-13T14:41:41.837Z,37.16
2022-09-13T14:44:29.259Z,38.38
2022-09-13T14:47:23.135Z,38.01
2022-09-13T14:50:29.706Z,38.78
2022-09-13T14:53:19.148Z,38.18
2022-09-13T14:56:05.174Z,40.75
2022-09-13T14:58:54.390Z,38.75
2022-09-13T15:01:40.518Z,38.37
2022-09-13T15:04:28.186Z,40.55
2022-09-13T15:07:23.624Z,40.37
2022-09-13T15:10:13.127Z,40.22
2022-09-13T15:13:09.460Z,40.08
2022-09-13T15:15:55.954Z,42.51
2022-09-13T15:18:42.093Z,43.12
2022-09-13T15:21:28.713Z,41.26
2022-09-13T15:24:32.350Z,40.32
2022-09-13T15:27:25.665Z,41.37
2022-09-13T15:30:28.118Z,41.06
2022-09-13T15:33:20.288Z,40.30
2022-09-13T15:36:33.306Z,41.73
2022-09-13T15:39:21.480Z,41.84
2022-09-13T15:42:07.769Z,40.85
2022-09-13T15:44:54.101Z,39.70
2022-09-13T15:47:40.014Z,41.44
2022-09-13T15:50:30.968Z,40.38
2022-09-13T15:53:17.082Z,41.88
2022-09-13T15:56:04.232Z,40.43
2022-09-13T15:58:50.222Z,39.96
2022-09-13T16:01:36.510Z,41.23
2022-09-13T16:04:22.978Z,40.50
2022-09-13T16:07:08.975Z,41.06
2022-09-13T16:09:55.272Z,40.94
2022-09-13T16:12:41.286Z,39.83
2022-09-13T16:15:28.355Z,39.97
2022-09-13T16:18:15.166Z,41.00
2022-09-13T16:21:01.318Z,41.24
2022-09-13T16:23:47.057Z,41.60
2022-09-13T16:26:33.663Z,41.73
2022-09-13T16:29:19.293Z,42.96
2022-09-13T16:32:05.811Z,43.44
2022-09-13T16:34:51.523Z,44.44
2022-09-13T16:37:38.134Z,43.93
2022-09-13T16:40:24.423Z,45.03
2022-09-13T16:43:11.129Z,44.88
2022-09-13T16:45:56.728Z,44.20
2022-09-13T16:48:42.824Z,43.84
2022-09-13T16:51:28.638Z,44.56
2022-09-13T16:54:14.942Z,46.14
2022-09-13T16:57:01.414Z,46.13
2022-09-13T16:59:48.524Z,46.60
2022-09-13T17:02:34.504Z,47.48
2022-09-13T17:05:22.470Z,48.11
2022-09-13T17:08:08.600Z,48.74
2022-09-13T17:10:54.912Z,49.76
2022-09-13T17:13:41.359Z,50.46
2022-09-13T17:16:28.888Z,50.81
2022-09-13T17:19:40.097Z,49.15
2022-09-13T17:22:26.255Z,50.64
2022-09-13T17:25:13.738Z,51.45
2022-09-13T17:28:00.828Z,51.79
2022-09-13T17:30:46.965Z,50.58
2022-09-13T17:33:35.069Z,50.51
2022-09-13T17:36:21.118Z,51.38
2022-09-13T17:39:07.306Z,52.06
2022-09-13T17:41:53.592Z,52.51
2022-09-13T17:44:44.788Z,52.61
2022-09-13T17:47:31.877Z,53.51
2022-09-13T17:50:18.129Z,52.81
2022-09-13T17:53:04.886Z,53.85
2022-09-13T17:55:51.135Z,54.03
2022-09-13T17:58:36.826Z,55.69
2022-09-13T18:01:23.328Z,55.71
2022-09-13T18:04:10.381Z,56.01
2022-09-13T18:06:57.364Z,55.63
2022-09-13T18:09:43.914Z,55.71
2022-09-13T18:12:31.232Z,58.78
2022-09-13T18:18:52.164Z,57.96
2022-09-13T18:21:42.953Z,59.56
2022-09-13T18:24:29.260Z,58.41
2022-09-13T18:27:15.562Z,57.36
2022-09-13T18:30:06.673Z,59.06
2022-09-13T18:32:52.955Z,60.40
2022-09-13T18:35:40.075Z,60.54
2022-09-13T18:38:31.492Z,62.07
2022-09-13T18:41:18.255Z,63.21
2022-09-13T18:44:07.754Z,64.38
2022-09-13T18:46:56.792Z,63.49
2022-09-13T18:49:48.941Z,64.02
2022-09-13T18:52:37.218Z,62.69
2022-09-13T18:55:23.513Z,63.29
2022-09-13T18:58:13.322Z,62.71
2022-09-13T19:01:06.395Z,63.09
2022-09-13T19:03:55.384Z,63.65
2022-09-13T19:06:48.779Z,63.15
2022-09-13T19:09:35.728Z,63.34
2022-09-13T19:12:22.261Z,63.07
2022-09-13T19:15:10.870Z,63.92
2022-09-13T19:17:58.433Z,63.41
2022-09-13T19:20:45.267Z,62.99
2022-09-13T19:23:55.494Z,63.17
2022-09-13T19:26:38.332Z,64.52
2022-09-13T19:29:26.836Z,65.95
2022-09-13T19:32:12.541Z,66.86
2022-09-13T19:34:58.702Z,64.78
2022-09-13T19:37:44.564Z,65.63
2022-09-13T19:40:32.776Z,65.77
2022-09-13T19:43:19.831Z,67.22
2022-09-13T19:46:11.102Z,66.22
2022-09-13T19:48:57.024Z,67.46
2022-09-13T19:51:46.475Z,67.54
2022-09-13T19:54:35.823Z,69.54
2022-09-13T19:57:22.413Z,68.52
2022-09-13T20:00:09.328Z,69.42
2022-09-13T20:02:54.986Z,67.56
2022-09-13T20:05:41.874Z,68.03
2022-09-13T20:08:27.937Z,68.67
2022-09-13T20:11:16.085Z,67.97
2022-09-13T20:14:01.913Z,69.57
2022-09-13T20:16:47.899Z,71.57
2022-09-13T20:19:41.833Z,71.96
2022-09-13T20:22:30.409Z,72.14
2022-09-13T20:25:18.184Z,72.07
2022-09-13T20:28:04.334Z,68.74
2022-09-13T20:30:54.314Z,68.04
2022-09-13T20:33:40.922Z,68.59
2022-09-13T20:36:27.762Z,68.38
2022-09-13T20:39:15.326Z,72.53
2022-09-13T20:42:01.521Z,76.17
2022-09-13T20:44:48.188Z,74.54
2022-09-13T20:47:36.196Z,78.25
2022-09-13T20:50:22.372Z,77.48
2022-09-13T20:53:08.184Z,71.62
2022-09-13T20:55:54.143Z,71.98
2022-09-13T20:58:40.303Z,74.70
2022-09-13T21:01:27.287Z,74.96
2022-09-13T21:04:13.274Z,71.12
2022-09-13T21:07:18.551Z,73.33
2022-09-13T21:10:05.271Z,71.29
2022-09-13T21:12:52.088Z,68.13
2022-09-13T21:15:38.607Z,68.73
2022-09-13T21:18:24.861Z,69.47
2022-09-13T21:21:18.028Z,70.71
2022-09-13T21:24:05.896Z,73.87
2022-09-13T21:26:52.057Z,73.58
2022-09-13T21:29:38.265Z,71.73
2022-09-13T21:32:23.996Z,72.41
2022-09-13T21:35:10.415Z,71.43
2022-09-13T21:37:56.195Z,71.17
2022-09-13T21:40:42.112Z,70.83
2022-09-13T21:43:28.162Z,70.56
2022-09-13T21:46:17.031Z,70.14
2022-09-13T21:49:04.980Z,70.98
2022-09-13T21:51:52.137Z,74.28
2022-09-13T21:54:37.808Z,79.84
2022-09-13T21:57:23.666Z,77.55
2022-09-13T22:00:09.704Z,76.32
2022-09-13T22:02:58.810Z,79.28
2022-09-13T22:05:44.535Z,75.56
2022-09-13T22:08:31.916Z,73.41
2022-09-13T22:11:21.976Z,77.54
2022-09-13T22:14:09.778Z,75.78
2022-09-13T22:16:56.060Z,74.38
2022-09-13T22:19:42.233Z,75.57
2022-09-13T22:22:28.075Z,75.36
2022-09-13T22:25:13.900Z,79.13
2022-09-13T22:28:00.230Z,79.13
2022-09-13T22:30:46.239Z,76.07
2022-09-13T22:33:32.713Z,74.53
2022-09-13T22:36:18.413Z,72.88
2022-09-13T22:39:04.461Z,73.49
2022-09-13T22:41:50.425Z,74.62
2022-09-13T22:44:36.706Z,77.64
2022-09-13T22:47:22.515Z,79.79
2022-09-13T22:50:09.539Z,77.13
2022-09-13T22:52:55.570Z,77.56
2022-09-13T22:55:41.426Z,78.76
2022-09-13T22:58:27.389Z,78.96
2022-09-13T23:01:14.607Z,79.50
2022-09-13T23:04:00.409Z,79.62
2022-09-13T23:06:46.574Z,84.81
2022-09-13T23:09:32.213Z,83.65
2022-09-13T23:12:18.528Z,81.48
2022-09-13T23:15:04.593Z,81.16
2022-09-13T23:17:50.894Z,79.70
2022-09-13T23:20:37.134Z,77.30
2022-09-13T23:23:22.987Z,75.46
2022-09-13T23:26:13.057Z,75.36
2022-09-13T23:29:01.153Z,75.24
2022-09-13T23:31:47.314Z,75.70
2022-09-13T23:34:33.993Z,79.05
2022-09-13T23:37:19.725Z,80.57
2022-09-13T23:40:06.267Z,82.04
2022-09-13T23:42:52.225Z,81.02
2022-09-13T23:45:38.341Z,80.96
2022-09-13T23:48:24.878Z,79.71
2022-09-13T23:51:16.757Z,78.77
2022-09-13T23:54:02.997Z,79.44
2022-09-13T23:56:49.422Z,79.85
2022-09-13T23:59:35.367Z,78.98
